sensor_id;sensor_type;location;lat;lon;timestamp;pressure;altitude;pressure_sealevel;temperature;humidity
55550;BME280;41397;49.972;18.944;2022-09-09T00:04:40;101567.48;;;20.82;85.03
55550;BME280;41397;49.972;18.944;2022-09-09T00:07:50;101546.27;;;20.81;84.67
55550;BME280;41397;49.972;18.944;2022-09-09T00:10:58;101562.09;;;20.81;84.85
55550;BME280;41397;49.972;18.944;2022-09-09T00:14:03;101556.02;;;20.77;84.90
55550;BME280;41397;49.972;18.944;2022-09-09T00:17:20;101557.59;;;20.72;85.32
55550;BME280;41397;49.972;18.944;2022-09-09T00:20:32;101556.18;;;20.76;84.97
55550;BME280;41397;49.972;18.944;2022-09-09T00:23:39;101554.61;;;20.65;85.14
55550;BME280;41397;49.972;18.944;2022-09-09T00:26:48;101567.13;;;20.69;85.55
55550;BME280;41397;49.972;18.944;2022-09-09T00:30:00;101571.84;;;20.69;85.25
55550;BME280;41397;49.972;18.944;2022-09-09T00:33:11;101571.13;;;20.67;85.31
55550;BME280;41397;49.972;18.944;2022-09-09T00:36:21;101576.84;;;20.65;85.13
55550;BME280;41397;49.972;18.944;2022-09-09T00:39:39;101579.98;;;20.62;85.45
55550;BME280;41397;49.972;18.944;2022-09-09T00:42:44;101582.39;;;20.57;85.35
55550;BME280;41397;49.972;18.944;2022-09-09T00:49:15;101584.98;;;20.50;85.66
55550;BME280;41397;49.972;18.944;2022-09-09T00:55:45;101586.01;;;20.41;85.53
55550;BME280;41397;49.972;18.944;2022-09-09T00:59:00;101593.45;;;20.40;85.29
55550;BME280;41397;49.972;18.944;2022-09-09T01:02:00;101592.59;;;20.40;85.06
55550;BME280;41397;49.972;18.944;2022-09-09T01:05:10;101601.77;;;20.32;85.75
55550;BME280;41397;49.972;18.944;2022-09-09T01:08:26;101597.45;;;20.30;85.63
55550;BME280;41397;49.972;18.944;2022-09-09T01:11:37;101601.43;;;20.27;85.55
55550;BME280;41397;49.972;18.944;2022-09-09T01:14:56;101601.72;;;20.16;85.86
55550;BME280;41397;49.972;18.944;2022-09-09T01:18:10;101609.53;;;20.12;85.88
55550;BME280;41397;49.972;18.944;2022-09-09T01:21:22;101609.38;;;20.14;85.38
55550;BME280;41397;49.972;18.944;2022-09-09T01:27:43;101609.13;;;19.99;86.05
55550;BME280;41397;49.972;18.944;2022-09-09T01:30:47;101614.52;;;20.01;85.98
55550;BME280;41397;49.972;18.944;2022-09-09T01:33:48;101605.34;;;20.00;85.99
55550;BME280;41397;49.972;18.944;2022-09-09T01:40:06;101603.38;;;19.92;86.17
55550;BME280;41397;49.972;18.944;2022-09-09T01:43:07;101619.71;;;19.95;85.54
55550;BME280;41397;49.972;18.944;2022-09-09T01:46:10;101626.13;;;19.96;85.81
55550;BME280;41397;49.972;18.944;2022-09-09T01:49:19;101622.48;;;19.95;85.64
55550;BME280;41397;49.972;18.944;2022-09-09T01:52:21;101622.14;;;19.99;85.33
55550;BME280;41397;49.972;18.944;2022-09-09T01:55:29;101613.99;;;19.97;85.40
55550;BME280;41397;49.972;18.944;2022-09-09T01:58:41;101625.97;;;19.98;85.55
55550;BME280;41397;49.972;18.944;2022-09-09T02:01:55;101629.62;;;19.98;85.00
55550;BME280;41397;49.972;18.944;2022-09-09T02:05:05;101627.70;;;19.99;84.99
55550;BME280;41397;49.972;18.944;2022-09-09T02:08:10;101626.98;;;19.96;85.02
55550;BME280;41397;49.972;18.944;2022-09-09T02:11:20;101631.18;;;20.01;84.82
55550;BME280;41397;49.972;18.944;2022-09-09T02:14:26;101631.01;;;20.02;84.77
55550;BME280;41397;49.972;18.944;2022-09-09T02:17:31;101634.98;;;20.00;84.93
55550;BME280;41397;49.972;18.944;2022-09-09T02:20:37;101649.38;;;19.95;85.42
55550;BME280;41397;49.972;18.944;2022-09-09T02:23:42;101643.13;;;19.93;85.50
55550;BME280;41397;49.972;18.944;2022-09-09T02:26:46;101645.02;;;19.92;85.10
55550;BME280;41397;49.972;18.944;2022-09-09T02:29:49;101648.62;;;19.85;85.40
55550;BME280;41397;49.972;18.944;2022-09-09T02:32:54;101653.13;;;19.86;85.16
55550;BME280;41397;49.972;18.944;2022-09-09T02:36:02;101659.53;;;19.78;85.60
55550;BME280;41397;49.972;18.944;2022-09-09T02:39:08;101655.87;;;19.78;85.68
55550;BME280;41397;49.972;18.944;2022-09-09T02:42:11;101658.33;;;19.81;85.30
55550;BME280;41397;49.972;18.944;2022-09-09T02:45:17;101659.35;;;19.80;85.41
55550;BME280;41397;49.972;18.944;2022-09-09T02:54:54;101677.53;;;19.74;85.57
55550;BME280;41397;49.972;18.944;2022-09-09T02:57:59;101677.38;;;19.76;85.62
55550;BME280;41397;49.972;18.944;2022-09-09T03:01:06;101677.38;;;19.76;85.33
55550;BME280;41397;49.972;18.944;2022-09-09T03:04:09;101681.89;;;19.77;85.34
55550;BME280;41397;49.972;18.944;2022-09-09T03:07:11;101664.19;;;19.78;84.87
55550;BME280;41397;49.972;18.944;2022-09-09T03:10:13;101667.53;;;19.81;84.93
55550;BME280;41397;49.972;18.944;2022-09-09T03:13:14;101680.54;;;19.81;84.83
55550;BME280;41397;49.972;18.944;2022-09-09T03:16:16;101679.31;;;19.83;84.57
55550;BME280;41397;49.972;18.944;2022-09-09T03:19:17;101681.07;;;19.84;84.79
55550;BME280;41397;49.972;18.944;2022-09-09T03:22:19;101678.45;;;19.83;84.81
55550;BME280;41397;49.972;18.944;2022-09-09T03:25:22;101682.98;;;19.84;84.83
55550;BME280;41397;49.972;18.944;2022-09-09T03:28:29;101684.71;;;19.85;84.93
55550;BME280;41397;49.972;18.944;2022-09-09T03:31:34;101678.82;;;19.88;84.66
55550;BME280;41397;49.972;18.944;2022-09-09T03:34:37;101677.63;;;19.90;84.75
55550;BME280;41397;49.972;18.944;2022-09-09T03:37:41;101687.68;;;19.91;84.94
55550;BME280;41397;49.972;18.944;2022-09-09T03:40:51;101700.70;;;19.91;84.80
55550;BME280;41397;49.972;18.944;2022-09-09T03:43:56;101696.73;;;19.93;84.69
55550;BME280;41397;49.972;18.944;2022-09-09T03:46:57;101700.70;;;19.91;85.24
55550;BME280;41397;49.972;18.944;2022-09-09T03:50:01;101697.92;;;19.91;85.11
55550;BME280;41397;49.972;18.944;2022-09-09T03:53:02;101693.91;;;19.85;84.71
55550;BME280;41397;49.972;18.944;2022-09-09T03:56:05;101698.59;;;19.85;84.88
55550;BME280;41397;49.972;18.944;2022-09-09T03:59:07;101709.70;;;19.85;84.83
55550;BME280;41397;49.972;18.944;2022-09-09T04:02:09;101699.63;;;19.84;84.68
55550;BME280;41397;49.972;18.944;2022-09-09T04:05:10;101705.34;;;19.82;84.76
55550;BME280;41397;49.972;18.944;2022-09-09T04:08:12;101706.20;;;19.83;84.66
55550;BME280;41397;49.972;18.944;2022-09-09T04:11:13;101704.62;;;19.80;84.55
55550;BME280;41397;49.972;18.944;2022-09-09T04:14:16;101701.66;;;19.73;84.59
55550;BME280;41397;49.972;18.944;2022-09-09T04:17:17;101711.70;;;19.74;84.89
55550;BME280;41397;49.972;18.944;2022-09-09T04:20:18;101704.75;;;19.70;85.21
55550;BME280;41397;49.972;18.944;2022-09-09T04:23:20;101717.91;;;19.68;85.34
55550;BME280;41397;49.972;18.944;2022-09-09T04:26:22;101713.41;;;19.67;85.10
55550;BME280;41397;49.972;18.944;2022-09-09T04:29:23;101705.95;;;19.68;85.10
55550;BME280;41397;49.972;18.944;2022-09-09T04:32:25;101706.48;;;19.71;85.16
55550;BME280;41397;49.972;18.944;2022-09-09T04:35:28;101710.84;;;19.74;85.08
55550;BME280;41397;49.972;18.944;2022-09-09T04:38:30;101710.03;;;19.82;85.41
55550;BME280;41397;49.972;18.944;2022-09-09T04:41:31;101713.28;;;20.03;85.77
55550;BME280;41397;49.972;18.944;2022-09-09T04:44:33;101711.52;;;20.36;86.25
55550;BME280;41397;49.972;18.944;2022-09-09T04:47:34;101701.62;;;20.76;85.37
55550;BME280;41397;49.972;18.944;2022-09-09T04:50:36;101700.80;;;21.25;84.53
55550;BME280;41397;49.972;18.944;2022-09-09T04:53:38;101707.25;;;21.75;82.75
55550;BME280;41397;49.972;18.944;2022-09-09T04:56:41;101698.23;;;22.28;80.89
55550;BME280;41397;49.972;18.944;2022-09-09T04:59:43;101707.20;;;22.78;77.84
55550;BME280;41397;49.972;18.944;2022-09-09T05:02:46;101691.89;;;23.28;76.40
55550;BME280;41397;49.972;18.944;2022-09-09T05:05:48;101701.96;;;23.75;74.14
55550;BME280;41397;49.972;18.944;2022-09-09T05:08:49;101706.41;;;24.29;72.05
55550;BME280;41397;49.972;18.944;2022-09-09T05:11:51;101713.91;;;24.58;69.60
55550;BME280;41397;49.972;18.944;2022-09-09T05:14:52;101720.91;;;24.84;68.88
55550;BME280;41397;49.972;18.944;2022-09-09T05:17:59;101715.84;;;24.72;67.05
55550;BME280;41397;49.972;18.944;2022-09-09T05:21:01;101721.45;;;24.57;67.22
55550;BME280;41397;49.972;18.944;2022-09-09T05:24:03;101729.73;;;24.36;66.24
55550;BME280;41397;49.972;18.944;2022-09-09T05:27:05;101727.60;;;24.08;66.78
55550;BME280;41397;49.972;18.944;2022-09-09T05:30:08;101736.55;;;23.89;67.59
55550;BME280;41397;49.972;18.944;2022-09-09T05:33:09;101730.27;;;23.87;68.57
55550;BME280;41397;49.972;18.944;2022-09-09T05:36:13;101740.88;;;23.77;68.82
55550;BME280;41397;49.972;18.944;2022-09-09T05:39:14;101733.05;;;23.72;69.05
55550;BME280;41397;49.972;18.944;2022-09-09T05:42:16;101732.89;;;23.88;69.85
55550;BME280;41397;49.972;18.944;2022-09-09T05:45:17;101728.98;;;24.12;69.32
55550;BME280;41397;49.972;18.944;2022-09-09T05:48:18;101727.44;;;24.40;68.85
55550;BME280;41397;49.972;18.944;2022-09-09T05:51:25;101723.01;;;24.45;67.60
55550;BME280;41397;49.972;18.944;2022-09-09T05:54:28;101720.47;;;24.65;67.84
55550;BME280;41397;49.972;18.944;2022-09-09T05:57:33;101729.87;;;24.94;66.29
55550;BME280;41397;49.972;18.944;2022-09-09T06:00:35;101721.37;;;25.23;66.24
55550;BME280;41397;49.972;18.944;2022-09-09T06:03:38;101720.44;;;25.59;65.25
55550;BME280;41397;49.972;18.944;2022-09-09T06:06:40;101709.93;;;25.89;63.69
55550;BME280;41397;49.972;18.944;2022-09-09T06:09:42;101705.98;;;26.12;62.55
55550;BME280;41397;49.972;18.944;2022-09-09T06:12:44;101717.79;;;26.42;62.14
55550;BME280;41397;49.972;18.944;2022-09-09T06:15:51;101711.30;;;26.76;60.91
55550;BME280;41397;49.972;18.944;2022-09-09T06:18:56;101721.67;;;26.89;59.50
55550;BME280;41397;49.972;18.944;2022-09-09T06:21:58;101718.48;;;27.06;58.34
55550;BME280;41397;49.972;18.944;2022-09-09T06:25:00;101720.70;;;27.17;57.93
55550;BME280;41397;49.972;18.944;2022-09-09T06:28:02;101722.01;;;27.21;57.21
55550;BME280;41397;49.972;18.944;2022-09-09T06:31:06;101720.52;;;27.32;57.48
55550;BME280;41397;49.972;18.944;2022-09-09T06:34:08;101723.98;;;27.40;58.11
55550;BME280;41397;49.972;18.944;2022-09-09T06:37:10;101724.00;;;27.54;57.23
55550;BME280;41397;49.972;18.944;2022-09-09T06:40:12;101721.85;;;27.82;57.34
55550;BME280;41397;49.972;18.944;2022-09-09T06:43:13;101719.02;;;28.09;55.96
55550;BME280;41397;49.972;18.944;2022-09-09T06:46:17;101722.66;;;28.29;54.56
55550;BME280;41397;49.972;18.944;2022-09-09T06:49:19;101716.76;;;28.51;55.13
55550;BME280;41397;49.972;18.944;2022-09-09T06:52:20;101722.37;;;28.58;52.91
55550;BME280;41397;49.972;18.944;2022-09-09T06:55:22;101718.26;;;28.60;53.22
55550;BME280;41397;49.972;18.944;2022-09-09T06:58:23;101723.57;;;28.82;53.11
55550;BME280;41397;49.972;18.944;2022-09-09T07:01:27;101712.97;;;28.77;53.20
55550;BME280;41397;49.972;18.944;2022-09-09T07:04:31;101710.93;;;28.97;52.69
55550;BME280;41397;49.972;18.944;2022-09-09T07:07:32;101707.41;;;29.02;51.64
55550;BME280;41397;49.972;18.944;2022-09-09T07:10:33;101712.14;;;29.15;51.24
55550;BME280;41397;49.972;18.944;2022-09-09T07:13:35;101705.95;;;29.31;51.01
55550;BME280;41397;49.972;18.944;2022-09-09T07:16:37;101704.37;;;29.42;49.87
55550;BME280;41397;49.972;18.944;2022-09-09T07:19:38;101709.72;;;29.50;50.05
55550;BME280;41397;49.972;18.944;2022-09-09T07:22:39;101702.70;;;29.59;50.52
55550;BME280;41397;49.972;18.944;2022-09-09T07:25:44;101713.13;;;29.27;50.18
55550;BME280;41397;49.972;18.944;2022-09-09T07:28:47;101709.81;;;29.37;50.53
55550;BME280;41397;49.972;18.944;2022-09-09T07:31:48;101708.69;;;29.45;51.27
55550;BME280;41397;49.972;18.944;2022-09-09T07:34:50;101721.02;;;29.43;51.25
55550;BME280;41397;49.972;18.944;2022-09-09T07:37:51;101730.52;;;29.49;50.75
55550;BME280;41397;49.972;18.944;2022-09-09T07:40:52;101721.09;;;29.69;50.86
55550;BME280;41397;49.972;18.944;2022-09-09T07:43:54;101722.23;;;29.86;49.57
55550;BME280;41397;49.972;18.944;2022-09-09T07:46:55;101718.43;;;29.99;49.75
55550;BME280;41397;49.972;18.944;2022-09-09T07:49:57;101727.61;;;30.13;49.24
55550;BME280;41397;49.972;18.944;2022-09-09T07:52:59;101721.88;;;30.19;48.88
55550;BME280;41397;49.972;18.944;2022-09-09T07:56:09;101716.13;;;30.33;48.66
55550;BME280;41397;49.972;18.944;2022-09-09T07:59:11;101727.33;;;30.39;48.52
55550;BME280;41397;49.972;18.944;2022-09-09T08:02:15;101722.78;;;30.38;48.12
55550;BME280;41397;49.972;18.944;2022-09-09T08:05:17;101729.67;;;30.61;46.21
55550;BME280;41397;49.972;18.944;2022-09-09T08:08:19;101726.79;;;30.49;45.77
55550;BME280;41397;49.972;18.944;2022-09-09T08:11:22;101740.74;;;30.44;45.50
55550;BME280;41397;49.972;18.944;2022-09-09T08:14:24;101728.44;;;30.38;45.23
55550;BME280;41397;49.972;18.944;2022-09-09T08:17:26;101727.61;;;30.13;45.67
55550;BME280;41397;49.972;18.944;2022-09-09T08:20:27;101727.05;;;29.79;47.35
55550;BME280;41397;49.972;18.944;2022-09-09T08:23:30;101730.41;;;29.69;48.21
55550;BME280;41397;49.972;18.944;2022-09-09T08:26:42;101736.97;;;29.88;47.73
55550;BME280;41397;49.972;18.944;2022-09-09T08:29:39;101728.44;;;29.95;47.09
55550;BME280;41397;49.972;18.944;2022-09-09T08:32:41;101731.34;;;30.06;46.80
55550;BME280;41397;49.972;18.944;2022-09-09T08:35:51;101729.32;;;30.14;45.67
55550;BME280;41397;49.972;18.944;2022-09-09T08:38:55;101720.97;;;30.25;45.83
55550;BME280;41397;49.972;18.944;2022-09-09T08:45:24;101727.59;;;30.56;44.97
55550;BME280;41397;49.972;18.944;2022-09-09T08:51:42;101733.08;;;30.51;44.03
55550;BME280;41397;49.972;18.944;2022-09-09T08:54:44;101729.85;;;30.29;44.61
55550;BME280;41397;49.972;18.944;2022-09-09T08:57:46;101727.11;;;30.41;44.63
55550;BME280;41397;49.972;18.944;2022-09-09T09:13:48;101725.02;;;30.11;43.95
55550;BME280;41397;49.972;18.944;2022-09-09T09:17:01;101716.16;;;30.07;45.27
55550;BME280;41397;49.972;18.944;2022-09-09T09:20:11;101712.32;;;30.02;45.37
55550;BME280;41397;49.972;18.944;2022-09-09T09:23:25;101706.85;;;30.07;45.72
55550;BME280;41397;49.972;18.944;2022-09-09T09:26:34;101714.88;;;30.03;46.01
55550;BME280;41397;49.972;18.944;2022-09-09T09:29:38;101702.75;;;30.03;45.79
55550;BME280;41397;49.972;18.944;2022-09-09T09:32:54;101703.69;;;29.97;45.65
55550;BME280;41397;49.972;18.944;2022-09-09T09:35:50;101707.19;;;29.92;44.77
55550;BME280;41397;49.972;18.944;2022-09-09T09:38:57;101713.20;;;29.77;45.29
55550;BME280;41397;49.972;18.944;2022-09-09T09:45:25;101715.75;;;29.54;45.89
55550;BME280;41397;49.972;18.944;2022-09-09T09:48:33;101712.99;;;29.47;45.56
55550;BME280;41397;49.972;18.944;2022-09-09T09:51:35;101708.97;;;29.61;45.44
55550;BME280;41397;49.972;18.944;2022-09-09T09:54:39;101715.93;;;29.59;43.94
55550;BME280;41397;49.972;18.944;2022-09-09T09:57:42;101714.82;;;29.67;45.49
55550;BME280;41397;49.972;18.944;2022-09-09T10:00:50;101709.72;;;29.50;44.76
55550;BME280;41397;49.972;18.944;2022-09-09T10:03:55;101713.78;;;29.54;45.80
55550;BME280;41397;49.972;18.944;2022-09-09T10:06:58;101724.13;;;29.35;43.12
55550;BME280;41397;49.972;18.944;2022-09-09T10:09:59;101726.41;;;29.20;45.25
55550;BME280;41397;49.972;18.944;2022-09-09T10:13:14;101732.23;;;29.25;45.51
55550;BME280;41397;49.972;18.944;2022-09-09T10:19:34;101737.80;;;29.32;43.74
55550;BME280;41397;49.972;18.944;2022-09-09T10:22:39;101746.84;;;29.40;45.10
55550;BME280;41397;49.972;18.944;2022-09-09T10:32:27;101746.23;;;29.38;42.95
55550;BME280;41397;49.972;18.944;2022-09-09T10:38:42;101726.66;;;29.75;42.07
55550;BME280;41397;49.972;18.944;2022-09-09T10:41:55;101730.02;;;29.59;40.56
55550;BME280;41397;49.972;18.944;2022-09-09T10:54:55;101735.12;;;29.75;42.29
55550;BME280;41397;49.972;18.944;2022-09-09T10:58:00;101730.41;;;29.69;42.71
55550;BME280;41397;49.972;18.944;2022-09-09T11:01:18;101733.41;;;29.74;42.97
55550;BME280;41397;49.972;18.944;2022-09-09T11:04:27;101734.30;;;29.68;42.21
55550;BME280;41397;49.972;18.944;2022-09-09T11:11:39;101731.45;;;29.75;41.93
55550;BME280;41397;49.972;18.944;2022-09-09T11:14:11;101725.23;;;29.66;42.77
55550;BME280;41397;49.972;18.944;2022-09-09T11:17:24;101731.52;;;29.61;42.31
55550;BME280;41397;49.972;18.944;2022-09-09T11:20:28;101735.02;;;29.63;42.40
55550;BME280;41397;49.972;18.944;2022-09-09T11:30:04;101740.59;;;29.70;43.31
55550;BME280;41397;49.972;18.944;2022-09-09T11:36:37;101748.53;;;29.80;41.60
55550;BME280;41397;49.972;18.944;2022-09-09T11:46:02;101737.14;;;29.36;41.71
55550;BME280;41397;49.972;18.944;2022-09-09T11:52:37;101741.92;;;29.36;42.47
55550;BME280;41397;49.972;18.944;2022-09-09T11:55:39;101736.42;;;29.03;42.41
55550;BME280;41397;49.972;18.944;2022-09-09T12:02:03;101736.65;;;29.08;42.92
55550;BME280;41397;49.972;18.944;2022-09-09T12:05:10;101743.38;;;29.00;43.21
55550;BME280;41397;49.972;18.944;2022-09-09T12:08:21;101746.86;;;29.09;43.50
55550;BME280;41397;49.972;18.944;2022-09-09T12:11:29;101743.98;;;29.15;43.39
55550;BME280;41397;49.972;18.944;2022-09-09T12:14:38;101749.42;;;29.10;42.82
55550;BME280;41397;49.972;18.944;2022-09-09T12:17:45;101740.41;;;28.88;42.68
55550;BME280;41397;49.972;18.944;2022-09-09T12:20:58;101747.95;;;28.94;43.13
55550;BME280;41397;49.972;18.944;2022-09-09T12:24:08;101750.82;;;28.88;43.07
55550;BME280;41397;49.972;18.944;2022-09-09T12:30:24;101766.41;;;28.90;43.57
55550;BME280;41397;49.972;18.944;2022-09-09T12:33:37;101751.66;;;28.95;43.26
55550;BME280;41397;49.972;18.944;2022-09-09T12:36:47;101749.52;;;28.84;42.88
55550;BME280;41397;49.972;18.944;2022-09-09T12:39:58;101746.09;;;28.82;43.68
55550;BME280;41397;49.972;18.944;2022-09-09T12:43:01;101744.29;;;28.94;43.75
55550;BME280;41397;49.972;18.944;2022-09-09T12:46:08;101739.51;;;28.94;44.55
55550;BME280;41397;49.972;18.944;2022-09-09T12:52:33;101735.95;;;28.67;43.25
55550;BME280;41397;49.972;18.944;2022-09-09T12:55:48;101725.64;;;28.48;42.77
55550;BME280;41397;49.972;18.944;2022-09-09T12:58:48;101731.68;;;28.58;43.81
55550;BME280;41397;49.972;18.944;2022-09-09T13:01:58;101720.00;;;28.54;43.71
55550;BME280;41397;49.972;18.944;2022-09-09T13:05:08;101723.23;;;28.65;44.35
55550;BME280;41397;49.972;18.944;2022-09-09T13:08:14;101715.39;;;28.67;44.90
55550;BME280;41397;49.972;18.944;2022-09-09T13:11:28;101719.30;;;28.66;43.92
55550;BME280;41397;49.972;18.944;2022-09-09T13:14:31;101716.94;;;28.63;43.08
55550;BME280;41397;49.972;18.944;2022-09-09T13:17:37;101712.83;;;28.59;43.84
55550;BME280;41397;49.972;18.944;2022-09-09T13:20:48;101706.59;;;28.50;44.29
55550;BME280;41397;49.972;18.944;2022-09-09T13:23:50;101707.49;;;28.44;44.88
55550;BME280;41397;49.972;18.944;2022-09-09T13:27:00;101706.38;;;28.51;44.82
55550;BME280;41397;49.972;18.944;2022-09-09T13:33:21;101699.45;;;28.54;44.61
55550;BME280;41397;49.972;18.944;2022-09-09T13:36:29;101702.88;;;28.56;44.91
55550;BME280;41397;49.972;18.944;2022-09-09T13:39:33;101699.60;;;28.66;45.18
55550;BME280;41397;49.972;18.944;2022-09-09T13:42:40;101692.07;;;28.60;44.58
55550;BME280;41397;49.972;18.944;2022-09-09T13:52:13;101689.91;;;28.55;43.98
55550;BME280;41397;49.972;18.944;2022-09-09T13:55:18;101690.16;;;28.33;44.33
55550;BME280;41397;49.972;18.944;2022-09-09T13:58:26;101677.21;;;28.26;44.84
55550;BME280;41397;49.972;18.944;2022-09-09T14:01:28;101670.31;;;28.15;45.61
55550;BME280;41397;49.972;18.944;2022-09-09T14:04:29;101665.38;;;28.10;44.95
55550;BME280;41397;49.972;18.944;2022-09-09T14:07:31;101669.94;;;28.05;44.84
55550;BME280;41397;49.972;18.944;2022-09-09T14:10:34;101663.87;;;28.08;45.62
55550;BME280;41397;49.972;18.944;2022-09-09T14:13:38;101653.03;;;28.11;45.59
55550;BME280;41397;49.972;18.944;2022-09-09T14:16:40;101654.74;;;28.13;45.88
55550;BME280;41397;49.972;18.944;2022-09-09T14:19:41;101660.37;;;28.13;45.79
55550;BME280;41397;49.972;18.944;2022-09-09T14:22:43;101658.45;;;28.06;45.78
55550;BME280;41397;49.972;18.944;2022-09-09T14:25:45;101656.29;;;28.08;46.00
55550;BME280;41397;49.972;18.944;2022-09-09T14:28:48;101650.86;;;28.07;45.86
55550;BME280;41397;49.972;18.944;2022-09-09T14:31:49;101653.33;;;27.83;45.95
55550;BME280;41397;49.972;18.944;2022-09-09T14:34:50;101658.05;;;27.89;46.02
55550;BME280;41397;49.972;18.944;2022-09-09T14:37:51;101651.35;;;27.91;46.21
55550;BME280;41397;49.972;18.944;2022-09-09T14:40:53;101652.67;;;27.81;45.26
55550;BME280;41397;49.972;18.944;2022-09-09T14:43:54;101653.08;;;27.72;46.39
55550;BME280;41397;49.972;18.944;2022-09-09T14:46:57;101661.51;;;27.72;46.26
55550;BME280;41397;49.972;18.944;2022-09-09T14:49:59;101660.41;;;27.79;46.25
55550;BME280;41397;49.972;18.944;2022-09-09T14:53:04;101655.48;;;27.81;45.55
55550;BME280;41397;49.972;18.944;2022-09-09T14:56:13;101649.17;;;27.79;46.09
55550;BME280;41397;49.972;18.944;2022-09-09T14:59:15;101635.36;;;27.71;45.65
55550;BME280;41397;49.972;18.944;2022-09-09T15:02:16;101639.91;;;27.72;46.86
55550;BME280;41397;49.972;18.944;2022-09-09T15:05:18;101639.27;;;27.70;46.61
55550;BME280;41397;49.972;18.944;2022-09-09T15:08:19;101644.63;;;27.72;46.21
55550;BME280;41397;49.972;18.944;2022-09-09T15:11:21;101646.38;;;27.66;45.51
55550;BME280;41397;49.972;18.944;2022-09-09T15:14:25;101647.28;;;27.53;45.53
55550;BME280;41397;49.972;18.944;2022-09-09T15:17:27;101650.07;;;27.20;45.15
55550;BME280;41397;49.972;18.944;2022-09-09T15:20:28;101650.49;;;27.17;45.75
55550;BME280;41397;49.972;18.944;2022-09-09T15:23:34;101645.28;;;27.14;46.55
55550;BME280;41397;49.972;18.944;2022-09-09T15:26:41;101668.84;;;27.13;47.11
55550;BME280;41397;49.972;18.944;2022-09-09T15:29:42;101660.61;;;27.11;47.33
55550;BME280;41397;49.972;18.944;2022-09-09T15:32:44;101670.56;;;27.07;47.43
55550;BME280;41397;49.972;18.944;2022-09-09T15:35:46;101662.77;;;27.03;47.58
55550;BME280;41397;49.972;18.944;2022-09-09T15:38:49;101675.91;;;26.95;48.16
55550;BME280;41397;49.972;18.944;2022-09-09T15:41:50;101670.96;;;26.91;48.57
55550;BME280;41397;49.972;18.944;2022-09-09T15:44:52;101667.06;;;26.85;48.34
55550;BME280;41397;49.972;18.944;2022-09-09T15:47:53;101671.58;;;26.79;48.47
55550;BME280;41397;49.972;18.944;2022-09-09T15:51:02;101665.08;;;26.72;48.54
55550;BME280;41397;49.972;18.944;2022-09-09T15:54:05;101662.26;;;26.66;48.74
55550;BME280;41397;49.972;18.944;2022-09-09T15:57:10;101653.14;;;26.57;48.90
55550;BME280;41397;49.972;18.944;2022-09-09T16:00:13;101662.80;;;26.48;49.22
55550;BME280;41397;49.972;18.944;2022-09-09T16:03:15;101662.55;;;26.43;49.55
55550;BME280;41397;49.972;18.944;2022-09-09T16:06:24;101664.25;;;26.37;49.77
55550;BME280;41397;49.972;18.944;2022-09-09T16:09:29;101655.61;;;26.32;49.65
55550;BME280;41397;49.972;18.944;2022-09-09T16:12:30;101650.17;;;26.24;49.98
55550;BME280;41397;49.972;18.944;2022-09-09T16:15:31;101646.02;;;26.13;50.46
55550;BME280;41397;49.972;18.944;2022-09-09T16:18:40;101653.13;;;26.09;50.24
55550;BME280;41397;49.972;18.944;2022-09-09T16:21:44;101646.36;;;25.97;50.18
55550;BME280;41397;49.972;18.944;2022-09-09T16:24:45;101649.01;;;25.77;50.42
55550;BME280;41397;49.972;18.944;2022-09-09T16:27:47;101642.49;;;25.69;51.92
55550;BME280;41397;49.972;18.944;2022-09-09T16:30:48;101639.84;;;25.61;51.57
55550;BME280;41397;49.972;18.944;2022-09-09T16:33:51;101646.33;;;25.62;51.31
55550;BME280;41397;49.972;18.944;2022-09-09T16:36:52;101640.25;;;25.58;51.74
55550;BME280;41397;49.972;18.944;2022-09-09T16:39:54;101642.54;;;25.48;52.30
55550;BME280;41397;49.972;18.944;2022-09-09T16:42:55;101640.52;;;25.35;53.02
55550;BME280;41397;49.972;18.944;2022-09-09T16:45:57;101640.92;;;25.32;52.98
55550;BME280;41397;49.972;18.944;2022-09-09T16:49:03;101649.96;;;25.34;53.31
55550;BME280;41397;49.972;18.944;2022-09-09T16:52:05;101642.83;;;25.32;53.38
55550;BME280;41397;49.972;18.944;2022-09-09T16:55:08;101650.38;;;25.31;53.26
55550;BME280;41397;49.972;18.944;2022-09-09T16:58:15;101652.73;;;25.28;53.90
55550;BME280;41397;49.972;18.944;2022-09-09T17:01:16;101649.48;;;25.24;54.12
55550;BME280;41397;49.972;18.944;2022-09-09T17:04:20;101648.99;;;25.20;54.81
55550;BME280;41397;49.972;18.944;2022-09-09T17:07:24;101649.20;;;25.19;55.16
55550;BME280;41397;49.972;18.944;2022-09-09T17:10:26;101642.45;;;25.13;55.77
55550;BME280;41397;49.972;18.944;2022-09-09T17:13:27;101645.43;;;25.12;55.83
55550;BME280;41397;49.972;18.944;2022-09-09T17:16:31;101649.72;;;25.08;56.11
55550;BME280;41397;49.972;18.944;2022-09-09T17:19:34;101647.70;;;25.01;56.63
55550;BME280;41397;49.972;18.944;2022-09-09T17:22:36;101655.18;;;24.94;57.06
55550;BME280;41397;49.972;18.944;2022-09-09T17:25:37;101648.45;;;24.89;57.76
55550;BME280;41397;49.972;18.944;2022-09-09T17:28:40;101652.91;;;24.83;57.74
55550;BME280;41397;49.972;18.944;2022-09-09T17:31:42;101661.21;;;24.76;58.23
55550;BME280;41397;49.972;18.944;2022-09-09T17:34:43;101662.20;;;24.69;58.47
55550;BME280;41397;49.972;18.944;2022-09-09T17:37:46;101662.81;;;24.64;58.76
55550;BME280;41397;49.972;18.944;2022-09-09T17:40:47;101661.67;;;24.58;59.26
55550;BME280;41397;49.972;18.944;2022-09-09T17:43:50;101670.57;;;24.47;59.76